createdAt,value
2019-05-20T00:02:36.317Z,8.23
2019-05-20T00:07:39.714Z,8.60
2019-05-20T00:12:43.151Z,7.60
2019-05-20T00:17:46.530Z,7.78
2019-05-20T00:22:49.926Z,8.35
2019-05-20T00:27:53.322Z,8.08
2019-05-20T00:32:57.723Z,7.33
2019-05-20T00:38:01.205Z,8.35
2019-05-20T00:43:04.622Z,7.15
2019-05-20T00:48:08.036Z,7.55
2019-05-20T00:53:11.433Z,6.92
2019-05-20T00:58:14.837Z,7.30
2019-05-20T01:03:18.281Z,7.20
2019-05-20T01:08:21.697Z,8.18
2019-05-20T01:13:25.094Z,7.15
2019-05-20T01:18:28.498Z,7.75
2019-05-20T01:23:31.934Z,7.62
2019-05-20T01:28:35.337Z,8.30
2019-05-20T01:33:38.730Z,7.87
2019-05-20T01:38:42.126Z,7.87
2019-05-20T01:43:45.521Z,8.25
2019-05-20T01:48:48.927Z,8.43
2019-05-20T01:53:52.423Z,7.80
2019-05-20T01:58:55.820Z,8.10
2019-05-20T02:03:59.215Z,8.28
2019-05-20T02:09:02.624Z,8.55
2019-05-20T02:14:07.654Z,8.03
2019-05-20T02:19:11.048Z,9.28
2019-05-20T02:24:14.445Z,8.88
2019-05-20T02:29:17.844Z,9.25
2019-05-20T02:34:21.262Z,8.38
2019-05-20T02:39:26.742Z,9.90
2019-05-20T02:44:29.786Z,9.53
2019-05-20T02:49:33.251Z,9.65
2019-05-20T02:54:36.664Z,10.48
2019-05-20T02:59:40.075Z,10.75
2019-05-20T03:04:43.495Z,9.68
2019-05-20T03:09:46.900Z,10.35
2019-05-20T03:14:50.319Z,10.10
2019-05-20T03:19:53.712Z,10.10
2019-05-20T03:24:57.121Z,10.00
2019-05-20T03:30:00.781Z,9.78
2019-05-20T03:35:05.678Z,10.25
2019-05-20T03:40:09.304Z,11.33
2019-05-20T03:45:13.737Z,10.95
2019-05-20T03:50:17.216Z,11.60
2019-05-20T03:55:20.612Z,11.70
2019-05-20T04:00:44.697Z,12.10
2019-05-20T04:05:48.080Z,13.05
2019-05-20T04:10:51.527Z,13.62
2019-05-20T04:15:54.942Z,12.98
2019-05-20T04:20:58.339Z,12.80
2019-05-20T04:26:02.116Z,13.62
2019-05-20T04:31:05.597Z,14.00
2019-05-20T04:36:09.001Z,14.40
2019-05-20T04:41:12.403Z,15.60
2019-05-20T04:46:15.809Z,14.83
2019-05-20T04:51:19.211Z,14.85
2019-05-20T04:56:22.623Z,15.05
2019-05-20T05:01:26.035Z,15.25
2019-05-20T05:06:29.448Z,15.10
2019-05-20T05:11:32.847Z,14.70
2019-05-20T05:16:36.272Z,16.15
2019-05-20T05:21:39.878Z,16.67
2019-05-20T05:26:43.267Z,15.98
2019-05-20T05:31:46.943Z,15.80
2019-05-20T05:36:50.344Z,16.73
2019-05-20T05:41:53.781Z,16.70
2019-05-20T05:46:57.215Z,16.02
2019-05-20T05:52:00.622Z,15.78
2019-05-20T05:57:04.022Z,16.45
2019-05-20T06:02:10.379Z,16.67
2019-05-20T06:07:13.794Z,16.52
2019-05-20T06:12:17.256Z,14.75
2019-05-20T06:17:20.675Z,13.88
2019-05-20T06:22:24.403Z,13.48
2019-05-20T06:27:27.847Z,13.58
2019-05-20T06:32:31.490Z,13.80
2019-05-20T06:37:49.649Z,14.03
2019-05-20T06:42:53.066Z,13.35
2019-05-20T06:47:56.460Z,13.22
2019-05-20T06:52:59.927Z,13.48
2019-05-20T06:58:03.346Z,13.98
2019-05-20T07:03:07.089Z,14.00
2019-05-20T07:08:10.486Z,13.83
2019-05-20T07:13:16.155Z,13.60
2019-05-20T07:18:19.014Z,13.28
2019-05-20T07:23:22.416Z,13.30
2019-05-20T07:28:25.986Z,14.03
2019-05-20T07:33:29.404Z,13.75
2019-05-20T07:38:33.088Z,14.58
2019-05-20T07:43:36.500Z,15.28
2019-05-20T07:48:40.545Z,15.85
2019-05-20T07:53:44.529Z,15.95
2019-05-20T07:58:50.968Z,15.93
2019-05-20T08:03:54.603Z,16.62
2019-05-20T08:08:58.001Z,15.93
2019-05-20T08:14:01.408Z,17.02
2019-05-20T08:19:05.409Z,16.45
2019-05-20T08:24:08.813Z,16.50
2019-05-20T08:29:12.227Z,17.00
2019-05-20T08:34:15.639Z,15.95
2019-05-20T08:39:19.372Z,15.70
2019-05-20T08:44:22.781Z,17.85
2019-05-20T08:49:26.570Z,16.60
2019-05-20T08:54:30.095Z,16.90
2019-05-20T08:59:33.495Z,15.75
2019-05-20T09:04:36.898Z,14.38
2019-05-20T09:09:40.362Z,15.60
2019-05-20T09:14:43.792Z,14.03
2019-05-20T09:19:47.430Z,15.53
2019-05-20T09:24:51.703Z,15.23
2019-05-20T09:29:55.314Z,14.45
2019-05-20T09:34:58.929Z,14.45
2019-05-20T09:40:02.422Z,14.90
2019-05-20T09:45:06.666Z,14.73
2019-05-20T09:50:10.404Z,16.10
2019-05-20T09:55:13.951Z,15.00
2019-05-20T10:00:17.695Z,14.83
2019-05-20T10:05:21.100Z,15.23
2019-05-20T10:10:24.836Z,15.35
2019-05-20T10:15:28.239Z,15.70
2019-05-20T10:20:31.685Z,15.68
2019-05-20T10:25:35.085Z,15.40
2019-05-20T10:30:38.492Z,16.67
2019-05-20T10:35:41.896Z,15.58
2019-05-20T10:40:45.337Z,15.63
2019-05-20T10:45:48.971Z,16.40
2019-05-20T10:50:52.643Z,14.87
2019-05-20T10:55:56.173Z,14.73
2019-05-20T11:01:03.188Z,9.25
2019-05-20T11:06:04.960Z,9.38
2019-05-20T11:11:13.721Z,8.15
2019-05-20T11:16:13.545Z,5.03
2019-05-20T11:21:16.941Z,5.10
2019-05-20T11:26:20.570Z,5.00
2019-05-20T11:31:23.974Z,6.30
2019-05-20T11:36:27.697Z,7.37
2019-05-20T11:41:52.212Z,6.53
2019-05-20T11:46:36.220Z,6.20
2019-05-20T11:51:39.599Z,5.92
2019-05-20T11:56:42.999Z,5.67
2019-05-20T12:01:46.685Z,5.75
2019-05-20T12:06:50.105Z,6.40
2019-05-20T12:11:53.503Z,7.25
2019-05-20T12:16:56.952Z,8.33
2019-05-20T12:22:00.311Z,6.65
2019-05-20T12:27:03.699Z,7.25
2019-05-20T12:32:07.099Z,14.95
2019-05-20T12:37:10.537Z,8.80
2019-05-20T12:42:14.298Z,9.00
2019-05-20T12:47:18.095Z,8.70
2019-05-20T12:52:21.720Z,8.38
2019-05-20T12:57:25.131Z,9.33
2019-05-20T13:02:28.553Z,14.65
2019-05-20T13:07:32.022Z,10.40
2019-05-20T13:12:35.499Z,10.10
2019-05-20T13:17:43.703Z,11.25
2019-05-20T13:22:44.103Z,12.18
2019-05-20T13:27:47.511Z,14.53
2019-05-20T13:32:51.199Z,14.53
2019-05-20T13:37:54.698Z,17.00
2019-05-20T13:42:58.099Z,15.78
2019-05-20T13:48:01.516Z,18.50
2019-05-20T13:53:04.923Z,20.62
2019-05-20T13:58:08.426Z,18.10
2019-05-20T14:03:11.847Z,12.40
2019-05-20T14:08:15.347Z,18.82
2019-05-20T14:13:18.742Z,15.25
2019-05-20T14:18:22.451Z,15.80
2019-05-20T14:23:25.866Z,16.55
2019-05-20T14:28:29.282Z,13.30
2019-05-20T14:33:32.722Z,15.15
2019-05-20T14:38:36.103Z,13.93
2019-05-20T14:43:39.530Z,16.37
2019-05-20T14:48:42.979Z,16.05
2019-05-20T14:53:46.773Z,18.98
2019-05-20T14:58:50.165Z,15.25
2019-05-20T15:03:53.622Z,15.75
2019-05-20T15:08:57.098Z,20.12
2019-05-20T15:14:00.735Z,23.50
2019-05-20T15:19:04.304Z,22.35
2019-05-20T15:24:07.777Z,22.73
2019-05-20T15:29:27.020Z,20.10
2019-05-20T15:34:16.607Z,20.27
2019-05-20T15:39:20.083Z,22.90
2019-05-20T15:44:23.787Z,22.52
2019-05-20T15:49:27.337Z,24.45
2019-05-20T15:54:30.736Z,23.50
2019-05-20T15:59:45.438Z,23.15
2019-05-20T16:04:39.581Z,25.43
2019-05-20T16:09:43.303Z,24.55
2019-05-20T16:14:46.712Z,23.52
2019-05-20T16:19:50.184Z,27.27
2019-05-20T16:24:53.584Z,30.25
2019-05-20T16:30:06.127Z,31.23
2019-05-20T16:35:02.953Z,32.75
2019-05-20T16:40:09.991Z,32.70
2019-05-20T16:45:14.524Z,32.33
2019-05-20T16:50:18.383Z,33.85
2019-05-20T16:55:21.763Z,35.05
2019-05-20T17:00:31.477Z,33.88
2019-05-20T17:05:30.667Z,34.33
2019-05-20T17:10:34.070Z,33.33
2019-05-20T17:15:37.542Z,40.15
2019-05-20T17:20:45.615Z,23.30
2019-05-20T17:25:46.326Z,7.75
2019-05-20T17:30:49.732Z,15.63
2019-05-20T17:35:53.148Z,23.07
2019-05-20T17:40:56.562Z,17.48
2019-05-20T17:46:00.035Z,20.85
2019-05-20T17:51:03.847Z,12.13
2019-05-20T17:56:07.330Z,11.15
2019-05-20T18:01:15.490Z,8.78
2019-05-20T18:06:15.833Z,4.75
2019-05-20T18:11:19.519Z,4.60
2019-05-20T18:16:23.020Z,5.67
2019-05-20T18:21:26.415Z,8.35
2019-05-20T18:26:30.198Z,11.28
2019-05-20T18:31:33.595Z,12.47
2019-05-20T18:36:37.082Z,13.28
2019-05-20T18:41:40.501Z,15.15
2019-05-20T18:46:43.933Z,13.22
2019-05-20T18:51:47.339Z,12.23
2019-05-20T18:56:50.773Z,13.00
2019-05-20T19:02:04.651Z,12.45
2019-05-20T19:06:59.284Z,10.80
2019-05-20T19:12:02.679Z,9.78
2019-05-20T19:17:06.158Z,8.30
2019-05-20T19:22:09.834Z,7.58
2019-05-20T19:27:13.237Z,6.55
2019-05-20T19:32:16.913Z,6.60
2019-05-20T19:37:20.312Z,6.00
2019-05-20T19:42:23.704Z,5.80
2019-05-20T19:47:27.146Z,6.10
2019-05-20T19:52:30.542Z,6.62
2019-05-20T19:57:33.979Z,8.65
2019-05-20T20:02:37.386Z,7.67
2019-05-20T20:07:40.782Z,9.23
2019-05-20T20:12:44.224Z,10.15
2019-05-20T20:17:47.699Z,9.73
2019-05-20T20:22:51.088Z,9.03
2019-05-20T20:27:54.557Z,9.63
2019-05-20T20:32:57.963Z,8.78
2019-05-20T20:38:01.664Z,8.73
2019-05-20T20:43:05.121Z,8.43
2019-05-20T20:48:08.516Z,5.62
2019-05-20T20:53:11.930Z,5.85
2019-05-20T20:58:15.326Z,6.00
2019-05-20T21:03:18.794Z,6.58
2019-05-20T21:08:22.190Z,8.00
2019-05-20T21:13:25.584Z,6.28
2019-05-20T21:18:28.988Z,6.85
2019-05-20T21:23:32.382Z,6.67
2019-05-20T21:28:35.817Z,8.28
2019-05-20T21:33:39.190Z,10.13
2019-05-20T21:38:42.605Z,12.00
2019-05-20T21:43:46.004Z,13.50
2019-05-20T21:48:49.408Z,15.10
2019-05-20T21:53:52.806Z,15.65
2019-05-20T21:58:56.216Z,15.68
2019-05-20T22:03:59.728Z,17.52
2019-05-20T22:09:04.105Z,17.75
2019-05-20T22:14:07.576Z,16.02
2019-05-20T22:19:11.052Z,15.38
2019-05-20T22:24:14.464Z,15.80
2019-05-20T22:29:17.872Z,15.60
2019-05-20T22:34:21.271Z,16.15
2019-05-20T22:39:24.670Z,16.45
2019-05-20T22:44:28.335Z,14.87
2019-05-20T22:49:32.081Z,12.13
2019-05-20T22:54:35.455Z,10.05
2019-05-20T22:59:38.866Z,9.95
2019-05-20T23:04:42.264Z,9.85
2019-05-20T23:09:45.747Z,10.88
2019-05-20T23:14:49.158Z,10.08
2019-05-20T23:19:52.554Z,9.60
2019-05-20T23:24:55.962Z,10.00
2019-05-20T23:29:59.404Z,9.98
2019-05-20T23:35:02.855Z,10.23
2019-05-20T23:40:07.099Z,11.03
2019-05-20T23:45:11.032Z,10.65
2019-05-20T23:50:14.941Z,12.75
2019-05-20T23:55:18.347Z,12.53
